sensor_id;sensor_type;location;lat;lon;timestamp;P1;durP1;ratioP1;P2;durP2;ratioP2
56171;SDS011;42052;41.634;-0.946;2023-05-27T00:01:01;3.47;;;2.05;;
56171;SDS011;42052;41.634;-0.946;2023-05-27T00:03:47;3.55;;;2.10;;
56171;SDS011;42052;41.634;-0.946;2023-05-27T00:06:33;3.25;;;2.00;;
56171;SDS011;42052;41.634;-0.946;2023-05-27T00:09:19;3.75;;;2.00;;
56171;SDS011;42052;41.634;-0.946;2023-05-27T00:12:05;3.28;;;1.95;;
56171;SDS011;42052;41.634;-0.946;2023-05-27T00:14:52;5.20;;;2.00;;
56171;SDS011;42052;41.634;-0.946;2023-05-27T00:17:38;2.25;;;1.70;;
56171;SDS011;42052;41.634;-0.946;2023-05-27T00:20:24;3.42;;;2.05;;
56171;SDS011;42052;41.634;-0.946;2023-05-27T00:23:11;3.80;;;2.00;;
56171;SDS011;42052;41.634;-0.946;2023-05-27T00:25:57;3.88;;;2.00;;
56171;SDS011;42052;41.634;-0.946;2023-05-27T00:28:43;3.20;;;1.90;;
56171;SDS011;42052;41.634;-0.946;2023-05-27T00:31:29;3.20;;;2.00;;
56171;SDS011;42052;41.634;-0.946;2023-05-27T00:34:15;3.03;;;2.00;;
56171;SDS011;42052;41.634;-0.946;2023-05-27T00:37:01;2.75;;;1.80;;
56171;SDS011;42052;41.634;-0.946;2023-05-27T00:39:50;3.63;;;2.08;;
56171;SDS011;42052;41.634;-0.946;2023-05-27T00:42:36;3.38;;;2.00;;
56171;SDS011;42052;41.634;-0.946;2023-05-27T00:45:22;4.65;;;2.25;;
56171;SDS011;42052;41.634;-0.946;2023-05-27T00:48:08;2.83;;;1.83;;
56171;SDS011;42052;41.634;-0.946;2023-05-27T00:50:55;4.35;;;2.20;;
56171;SDS011;42052;41.634;-0.946;2023-05-27T00:53:42;3.33;;;1.90;;
56171;SDS011;42052;41.634;-0.946;2023-05-27T00:56:29;3.10;;;2.13;;
56171;SDS011;42052;41.634;-0.946;2023-05-27T00:59:16;3.28;;;2.10;;
56171;SDS011;42052;41.634;-0.946;2023-05-27T01:02:03;4.82;;;2.00;;
56171;SDS011;42052;41.634;-0.946;2023-05-27T01:04:50;2.63;;;1.98;;
56171;SDS011;42052;41.634;-0.946;2023-05-27T01:07:50;2.42;;;1.80;;
56171;SDS011;42052;41.634;-0.946;2023-05-27T01:10:53;5.25;;;2.10;;
56171;SDS011;42052;41.634;-0.946;2023-05-27T01:13:41;3.13;;;1.98;;
56171;SDS011;42052;41.634;-0.946;2023-05-27T01:16:31;3.15;;;2.15;;
56171;SDS011;42052;41.634;-0.946;2023-05-27T01:19:25;3.97;;;2.13;;
56171;SDS011;42052;41.634;-0.946;2023-05-27T01:22:18;3.75;;;2.13;;
56171;SDS011;42052;41.634;-0.946;2023-05-27T01:25:06;4.07;;;2.15;;
56171;SDS011;42052;41.634;-0.946;2023-05-27T01:27:52;3.35;;;2.03;;
56171;SDS011;42052;41.634;-0.946;2023-05-27T01:30:41;4.63;;;2.10;;
56171;SDS011;42052;41.634;-0.946;2023-05-27T01:33:27;3.47;;;2.20;;
56171;SDS011;42052;41.634;-0.946;2023-05-27T01:36:19;5.25;;;2.10;;
56171;SDS011;42052;41.634;-0.946;2023-05-27T01:39:09;3.10;;;2.30;;
56171;SDS011;42052;41.634;-0.946;2023-05-27T01:41:59;3.75;;;2.20;;
56171;SDS011;42052;41.634;-0.946;2023-05-27T01:44:47;5.05;;;2.40;;
56171;SDS011;42052;41.634;-0.946;2023-05-27T01:47:33;3.80;;;2.20;;
56171;SDS011;42052;41.634;-0.946;2023-05-27T01:50:20;3.05;;;2.30;;
56171;SDS011;42052;41.634;-0.946;2023-05-27T01:53:06;3.40;;;2.00;;
56171;SDS011;42052;41.634;-0.946;2023-05-27T01:55:52;3.70;;;2.13;;
56171;SDS011;42052;41.634;-0.946;2023-05-27T01:58:38;3.63;;;2.13;;
56171;SDS011;42052;41.634;-0.946;2023-05-27T02:01:24;3.25;;;2.20;;
56171;SDS011;42052;41.634;-0.946;2023-05-27T02:04:10;2.88;;;2.05;;
56171;SDS011;42052;41.634;-0.946;2023-05-27T02:06:56;3.22;;;2.15;;
56171;SDS011;42052;41.634;-0.946;2023-05-27T02:09:43;2.75;;;2.22;;
56171;SDS011;42052;41.634;-0.946;2023-05-27T02:12:30;3.47;;;2.13;;
56171;SDS011;42052;41.634;-0.946;2023-05-27T02:15:16;3.65;;;2.13;;
56171;SDS011;42052;41.634;-0.946;2023-05-27T02:18:02;3.63;;;2.10;;
56171;SDS011;42052;41.634;-0.946;2023-05-27T02:20:50;3.70;;;2.20;;
56171;SDS011;42052;41.634;-0.946;2023-05-27T02:23:36;3.45;;;1.98;;
56171;SDS011;42052;41.634;-0.946;2023-05-27T02:26:22;4.05;;;2.40;;
56171;SDS011;42052;41.634;-0.946;2023-05-27T02:29:09;6.20;;;2.42;;
56171;SDS011;42052;41.634;-0.946;2023-05-27T02:31:55;2.75;;;2.10;;
56171;SDS011;42052;41.634;-0.946;2023-05-27T02:34:41;5.15;;;2.38;;
56171;SDS011;42052;41.634;-0.946;2023-05-27T02:37:27;4.22;;;2.55;;
56171;SDS011;42052;41.634;-0.946;2023-05-27T02:40:23;3.95;;;2.22;;
56171;SDS011;42052;41.634;-0.946;2023-05-27T02:43:13;4.00;;;2.35;;
56171;SDS011;42052;41.634;-0.946;2023-05-27T02:45:59;4.15;;;2.22;;
56171;SDS011;42052;41.634;-0.946;2023-05-27T02:48:46;4.13;;;2.40;;
56171;SDS011;42052;41.634;-0.946;2023-05-27T02:51:32;5.18;;;2.58;;
56171;SDS011;42052;41.634;-0.946;2023-05-27T02:54:18;3.60;;;2.47;;
56171;SDS011;42052;41.634;-0.946;2023-05-27T02:57:04;5.55;;;2.47;;
56171;SDS011;42052;41.634;-0.946;2023-05-27T02:59:50;4.07;;;2.20;;
56171;SDS011;42052;41.634;-0.946;2023-05-27T03:02:36;3.22;;;2.63;;
56171;SDS011;42052;41.634;-0.946;2023-05-27T03:05:22;3.20;;;2.20;;
56171;SDS011;42052;41.634;-0.946;2023-05-27T03:08:09;4.35;;;2.50;;
56171;SDS011;42052;41.634;-0.946;2023-05-27T03:10:55;4.55;;;2.30;;
56171;SDS011;42052;41.634;-0.946;2023-05-27T03:13:41;2.63;;;2.20;;
56171;SDS011;42052;41.634;-0.946;2023-05-27T03:16:27;4.10;;;2.30;;
56171;SDS011;42052;41.634;-0.946;2023-05-27T03:19:14;3.28;;;2.22;;
56171;SDS011;42052;41.634;-0.946;2023-05-27T03:22:00;4.38;;;2.40;;
56171;SDS011;42052;41.634;-0.946;2023-05-27T03:24:46;2.53;;;1.90;;
56171;SDS011;42052;41.634;-0.946;2023-05-27T03:27:32;3.83;;;2.20;;
56171;SDS011;42052;41.634;-0.946;2023-05-27T03:30:19;4.07;;;2.50;;
56171;SDS011;42052;41.634;-0.946;2023-05-27T03:33:06;4.03;;;2.60;;
56171;SDS011;42052;41.634;-0.946;2023-05-27T03:35:52;4.10;;;2.20;;
56171;SDS011;42052;41.634;-0.946;2023-05-27T03:38:38;4.30;;;2.30;;
56171;SDS011;42052;41.634;-0.946;2023-05-27T03:41:24;2.67;;;2.10;;
56171;SDS011;42052;41.634;-0.946;2023-05-27T03:44:10;4.35;;;2.50;;
56171;SDS011;42052;41.634;-0.946;2023-05-27T03:46:56;4.10;;;2.40;;
56171;SDS011;42052;41.634;-0.946;2023-05-27T03:49:43;4.28;;;2.40;;
56171;SDS011;42052;41.634;-0.946;2023-05-27T03:52:29;3.88;;;2.35;;
56171;SDS011;42052;41.634;-0.946;2023-05-27T03:55:15;4.20;;;2.47;;
56171;SDS011;42052;41.634;-0.946;2023-05-27T03:58:06;4.72;;;2.15;;
56171;SDS011;42052;41.634;-0.946;2023-05-27T04:00:52;5.40;;;2.47;;
56171;SDS011;42052;41.634;-0.946;2023-05-27T04:03:38;4.03;;;2.50;;
56171;SDS011;42052;41.634;-0.946;2023-05-27T04:06:27;2.53;;;1.92;;
56171;SDS011;42052;41.634;-0.946;2023-05-27T04:09:13;4.68;;;2.42;;
56171;SDS011;42052;41.634;-0.946;2023-05-27T04:11:59;2.65;;;2.30;;
56171;SDS011;42052;41.634;-0.946;2023-05-27T04:14:45;5.25;;;2.30;;
56171;SDS011;42052;41.634;-0.946;2023-05-27T04:17:31;3.85;;;2.15;;
56171;SDS011;42052;41.634;-0.946;2023-05-27T04:20:17;4.63;;;2.40;;
56171;SDS011;42052;41.634;-0.946;2023-05-27T04:23:03;4.25;;;2.25;;
56171;SDS011;42052;41.634;-0.946;2023-05-27T04:25:50;4.57;;;2.47;;
56171;SDS011;42052;41.634;-0.946;2023-05-27T04:28:37;4.28;;;2.33;;
56171;SDS011;42052;41.634;-0.946;2023-05-27T04:31:24;4.47;;;2.28;;
56171;SDS011;42052;41.634;-0.946;2023-05-27T04:34:14;6.65;;;2.40;;
56171;SDS011;42052;41.634;-0.946;2023-05-27T04:37:00;3.33;;;2.25;;
56171;SDS011;42052;41.634;-0.946;2023-05-27T04:39:46;4.30;;;2.53;;
56171;SDS011;42052;41.634;-0.946;2023-05-27T04:42:32;3.63;;;2.33;;
56171;SDS011;42052;41.634;-0.946;2023-05-27T04:45:18;5.13;;;2.40;;
56171;SDS011;42052;41.634;-0.946;2023-05-27T04:48:04;3.78;;;2.22;;
56171;SDS011;42052;41.634;-0.946;2023-05-27T04:50:51;3.10;;;2.45;;
56171;SDS011;42052;41.634;-0.946;2023-05-27T04:53:42;5.65;;;2.40;;
56171;SDS011;42052;41.634;-0.946;2023-05-27T04:56:28;6.78;;;2.53;;
56171;SDS011;42052;41.634;-0.946;2023-05-27T04:59:14;5.35;;;2.75;;
56171;SDS011;42052;41.634;-0.946;2023-05-27T05:02:02;3.28;;;2.17;;
56171;SDS011;42052;41.634;-0.946;2023-05-27T05:05:07;4.72;;;2.60;;
56171;SDS011;42052;41.634;-0.946;2023-05-27T05:07:59;3.67;;;2.50;;
56171;SDS011;42052;41.634;-0.946;2023-05-27T05:10:46;4.13;;;2.50;;
56171;SDS011;42052;41.634;-0.946;2023-05-27T05:13:32;7.00;;;2.40;;
56171;SDS011;42052;41.634;-0.946;2023-05-27T05:16:18;3.67;;;2.40;;
56171;SDS011;42052;41.634;-0.946;2023-05-27T05:19:05;4.43;;;2.60;;
56171;SDS011;42052;41.634;-0.946;2023-05-27T05:21:51;6.70;;;2.50;;
56171;SDS011;42052;41.634;-0.946;2023-05-27T05:24:37;2.78;;;1.88;;
56171;SDS011;42052;41.634;-0.946;2023-05-27T05:27:24;3.38;;;2.10;;
56171;SDS011;42052;41.634;-0.946;2023-05-27T05:30:10;5.10;;;2.72;;
56171;SDS011;42052;41.634;-0.946;2023-05-27T05:32:57;4.38;;;2.30;;
56171;SDS011;42052;41.634;-0.946;2023-05-27T05:35:44;5.18;;;2.40;;
56171;SDS011;42052;41.634;-0.946;2023-05-27T05:38:30;4.43;;;2.38;;
56171;SDS011;42052;41.634;-0.946;2023-05-27T05:41:16;4.07;;;2.60;;
56171;SDS011;42052;41.634;-0.946;2023-05-27T05:44:02;4.85;;;2.42;;
56171;SDS011;42052;41.634;-0.946;2023-05-27T05:46:48;3.70;;;2.28;;
56171;SDS011;42052;41.634;-0.946;2023-05-27T05:49:34;5.68;;;2.50;;
56171;SDS011;42052;41.634;-0.946;2023-05-27T05:52:20;6.00;;;2.42;;
56171;SDS011;42052;41.634;-0.946;2023-05-27T05:55:07;3.78;;;2.25;;
56171;SDS011;42052;41.634;-0.946;2023-05-27T05:57:53;4.13;;;2.53;;
56171;SDS011;42052;41.634;-0.946;2023-05-27T06:00:39;3.38;;;2.47;;
56171;SDS011;42052;41.634;-0.946;2023-05-27T06:03:25;4.30;;;2.40;;
56171;SDS011;42052;41.634;-0.946;2023-05-27T06:06:11;4.22;;;2.60;;
56171;SDS011;42052;41.634;-0.946;2023-05-27T06:08:57;5.10;;;2.40;;
56171;SDS011;42052;41.634;-0.946;2023-05-27T06:11:43;4.75;;;2.40;;
56171;SDS011;42052;41.634;-0.946;2023-05-27T06:14:29;4.03;;;2.50;;
56171;SDS011;42052;41.634;-0.946;2023-05-27T06:17:15;4.82;;;2.50;;
56171;SDS011;42052;41.634;-0.946;2023-05-27T06:20:02;5.22;;;2.50;;
56171;SDS011;42052;41.634;-0.946;2023-05-27T06:22:48;3.00;;;2.25;;
56171;SDS011;42052;41.634;-0.946;2023-05-27T06:25:34;4.00;;;2.55;;
56171;SDS011;42052;41.634;-0.946;2023-05-27T06:28:20;4.00;;;2.30;;
56171;SDS011;42052;41.634;-0.946;2023-05-27T06:31:06;3.83;;;2.30;;
56171;SDS011;42052;41.634;-0.946;2023-05-27T06:33:53;3.85;;;2.40;;
56171;SDS011;42052;41.634;-0.946;2023-05-27T06:36:39;2.85;;;2.08;;
56171;SDS011;42052;41.634;-0.946;2023-05-27T06:39:25;3.22;;;2.33;;
56171;SDS011;42052;41.634;-0.946;2023-05-27T06:42:11;3.38;;;2.55;;
56171;SDS011;42052;41.634;-0.946;2023-05-27T06:44:58;2.75;;;2.20;;
56171;SDS011;42052;41.634;-0.946;2023-05-27T06:47:44;4.25;;;2.50;;
56171;SDS011;42052;41.634;-0.946;2023-05-27T06:50:30;4.63;;;2.55;;
56171;SDS011;42052;41.634;-0.946;2023-05-27T06:53:17;3.92;;;2.40;;
56171;SDS011;42052;41.634;-0.946;2023-05-27T06:56:03;3.92;;;2.42;;
56171;SDS011;42052;41.634;-0.946;2023-05-27T06:58:49;3.47;;;2.40;;
56171;SDS011;42052;41.634;-0.946;2023-05-27T07:01:35;4.25;;;2.70;;
56171;SDS011;42052;41.634;-0.946;2023-05-27T07:04:22;3.30;;;2.35;;
56171;SDS011;42052;41.634;-0.946;2023-05-27T07:07:08;3.65;;;2.33;;
56171;SDS011;42052;41.634;-0.946;2023-05-27T07:09:54;4.57;;;2.50;;
56171;SDS011;42052;41.634;-0.946;2023-05-27T07:12:40;4.20;;;2.53;;
56171;SDS011;42052;41.634;-0.946;2023-05-27T07:15:26;3.95;;;2.55;;
56171;SDS011;42052;41.634;-0.946;2023-05-27T07:18:16;5.65;;;2.53;;
56171;SDS011;42052;41.634;-0.946;2023-05-27T07:21:02;4.40;;;2.15;;
56171;SDS011;42052;41.634;-0.946;2023-05-27T07:23:48;6.93;;;2.60;;
56171;SDS011;42052;41.634;-0.946;2023-05-27T07:26:34;3.17;;;2.30;;
56171;SDS011;42052;41.634;-0.946;2023-05-27T07:29:21;7.95;;;2.42;;
56171;SDS011;42052;41.634;-0.946;2023-05-27T07:32:07;6.53;;;3.20;;
56171;SDS011;42052;41.634;-0.946;2023-05-27T07:34:53;7.35;;;3.65;;
56171;SDS011;42052;41.634;-0.946;2023-05-27T07:37:39;8.27;;;3.40;;
56171;SDS011;42052;41.634;-0.946;2023-05-27T07:40:25;6.72;;;3.42;;
56171;SDS011;42052;41.634;-0.946;2023-05-27T07:43:11;11.13;;;4.40;;
56171;SDS011;42052;41.634;-0.946;2023-05-27T07:45:57;10.88;;;5.20;;
56171;SDS011;42052;41.634;-0.946;2023-05-27T07:48:43;8.25;;;4.70;;
56171;SDS011;42052;41.634;-0.946;2023-05-27T07:51:29;9.15;;;4.28;;
56171;SDS011;42052;41.634;-0.946;2023-05-27T07:54:17;6.82;;;3.92;;
56171;SDS011;42052;41.634;-0.946;2023-05-27T07:57:03;11.02;;;4.35;;
56171;SDS011;42052;41.634;-0.946;2023-05-27T07:59:51;8.07;;;4.63;;
56171;SDS011;42052;41.634;-0.946;2023-05-27T08:02:37;12.90;;;4.63;;
56171;SDS011;42052;41.634;-0.946;2023-05-27T08:05:24;8.30;;;4.93;;
56171;SDS011;42052;41.634;-0.946;2023-05-27T08:08:10;8.88;;;5.00;;
56171;SDS011;42052;41.634;-0.946;2023-05-27T08:10:56;12.73;;;6.03;;
56171;SDS011;42052;41.634;-0.946;2023-05-27T08:13:42;9.45;;;5.43;;
56171;SDS011;42052;41.634;-0.946;2023-05-27T08:16:28;11.38;;;5.80;;
56171;SDS011;42052;41.634;-0.946;2023-05-27T08:19:14;14.48;;;6.05;;
56171;SDS011;42052;41.634;-0.946;2023-05-27T08:22:00;12.30;;;5.63;;
56171;SDS011;42052;41.634;-0.946;2023-05-27T08:24:47;10.93;;;5.60;;
56171;SDS011;42052;41.634;-0.946;2023-05-27T08:30:36;10.32;;;5.68;;
56171;SDS011;42052;41.634;-0.946;2023-05-27T08:33:23;16.10;;;5.60;;
56171;SDS011;42052;41.634;-0.946;2023-05-27T08:36:09;13.98;;;5.65;;
56171;SDS011;42052;41.634;-0.946;2023-05-27T08:38:57;12.65;;;6.03;;
56171;SDS011;42052;41.634;-0.946;2023-05-27T08:41:43;10.13;;;6.10;;
56171;SDS011;42052;41.634;-0.946;2023-05-27T08:44:30;13.43;;;5.40;;
56171;SDS011;42052;41.634;-0.946;2023-05-27T08:47:16;13.48;;;5.93;;
56171;SDS011;42052;41.634;-0.946;2023-05-27T08:50:02;14.98;;;5.63;;
56171;SDS011;42052;41.634;-0.946;2023-05-27T08:52:52;12.82;;;5.68;;
56171;SDS011;42052;41.634;-0.946;2023-05-27T08:55:39;12.77;;;5.63;;
56171;SDS011;42052;41.634;-0.946;2023-05-27T08:58:26;12.55;;;5.63;;
56171;SDS011;42052;41.634;-0.946;2023-05-27T09:01:15;11.55;;;6.10;;
56171;SDS011;42052;41.634;-0.946;2023-05-27T09:04:06;14.50;;;5.65;;
56171;SDS011;42052;41.634;-0.946;2023-05-27T09:06:52;15.15;;;6.07;;
56171;SDS011;42052;41.634;-0.946;2023-05-27T09:09:39;11.50;;;5.32;;
56171;SDS011;42052;41.634;-0.946;2023-05-27T09:12:26;14.10;;;6.05;;
56171;SDS011;42052;41.634;-0.946;2023-05-27T09:15:12;9.23;;;5.60;;
56171;SDS011;42052;41.634;-0.946;2023-05-27T09:17:59;11.65;;;5.00;;
56171;SDS011;42052;41.634;-0.946;2023-05-27T09:20:47;12.55;;;5.43;;
56171;SDS011;42052;41.634;-0.946;2023-05-27T09:23:36;13.55;;;5.18;;
56171;SDS011;42052;41.634;-0.946;2023-05-27T09:26:24;15.15;;;5.80;;
56171;SDS011;42052;41.634;-0.946;2023-05-27T09:29:10;11.40;;;5.43;;
56171;SDS011;42052;41.634;-0.946;2023-05-27T09:31:56;12.80;;;5.88;;
56171;SDS011;42052;41.634;-0.946;2023-05-27T09:34:45;10.02;;;5.32;;
56171;SDS011;42052;41.634;-0.946;2023-05-27T09:37:32;13.27;;;5.18;;
56171;SDS011;42052;41.634;-0.946;2023-05-27T09:40:18;11.80;;;5.20;;
56171;SDS011;42052;41.634;-0.946;2023-05-27T09:43:04;12.93;;;5.25;;
56171;SDS011;42052;41.634;-0.946;2023-05-27T09:45:50;9.02;;;5.10;;
56171;SDS011;42052;41.634;-0.946;2023-05-27T09:48:41;10.25;;;5.18;;
56171;SDS011;42052;41.634;-0.946;2023-05-27T09:51:27;9.48;;;5.28;;
56171;SDS011;42052;41.634;-0.946;2023-05-27T09:54:17;9.60;;;5.10;;
56171;SDS011;42052;41.634;-0.946;2023-05-27T09:57:05;10.02;;;4.88;;
56171;SDS011;42052;41.634;-0.946;2023-05-27T09:59:53;10.75;;;4.70;;
56171;SDS011;42052;41.634;-0.946;2023-05-27T10:02:40;8.68;;;4.80;;
56171;SDS011;42052;41.634;-0.946;2023-05-27T10:05:31;10.93;;;4.90;;
56171;SDS011;42052;41.634;-0.946;2023-05-27T10:08:18;7.95;;;4.53;;
56171;SDS011;42052;41.634;-0.946;2023-05-27T10:11:04;11.30;;;5.10;;
56171;SDS011;42052;41.634;-0.946;2023-05-27T10:13:50;9.73;;;4.80;;
56171;SDS011;42052;41.634;-0.946;2023-05-27T10:16:37;10.35;;;5.07;;
56171;SDS011;42052;41.634;-0.946;2023-05-27T10:19:23;10.10;;;4.97;;
56171;SDS011;42052;41.634;-0.946;2023-05-27T10:22:10;11.32;;;4.78;;
56171;SDS011;42052;41.634;-0.946;2023-05-27T10:25:05;7.93;;;4.68;;
56171;SDS011;42052;41.634;-0.946;2023-05-27T10:27:56;8.52;;;4.45;;
56171;SDS011;42052;41.634;-0.946;2023-05-27T10:30:43;6.57;;;4.03;;
56171;SDS011;42052;41.634;-0.946;2023-05-27T10:33:30;9.10;;;4.70;;
56171;SDS011;42052;41.634;-0.946;2023-05-27T10:36:24;9.23;;;4.60;;
56171;SDS011;42052;41.634;-0.946;2023-05-27T10:41:59;8.73;;;4.10;;
56171;SDS011;42052;41.634;-0.946;2023-05-27T10:44:46;9.13;;;4.28;;
56171;SDS011;42052;41.634;-0.946;2023-05-27T10:47:34;10.05;;;3.95;;
56171;SDS011;42052;41.634;-0.946;2023-05-27T10:50:21;9.63;;;4.05;;
56171;SDS011;42052;41.634;-0.946;2023-05-27T10:53:20;7.32;;;4.25;;
56171;SDS011;42052;41.634;-0.946;2023-05-27T10:56:06;7.97;;;4.10;;
56171;SDS011;42052;41.634;-0.946;2023-05-27T10:58:54;11.30;;;4.00;;
56171;SDS011;42052;41.634;-0.946;2023-05-27T11:01:42;7.43;;;4.07;;
56171;SDS011;42052;41.634;-0.946;2023-05-27T11:04:34;9.30;;;4.20;;
56171;SDS011;42052;41.634;-0.946;2023-05-27T11:07:21;7.68;;;4.05;;
56171;SDS011;42052;41.634;-0.946;2023-05-27T11:10:09;5.65;;;3.70;;
56171;SDS011;42052;41.634;-0.946;2023-05-27T11:12:56;7.07;;;4.13;;
56171;SDS011;42052;41.634;-0.946;2023-05-27T11:15:42;6.28;;;3.72;;
56171;SDS011;42052;41.634;-0.946;2023-05-27T11:18:37;8.32;;;4.25;;
56171;SDS011;42052;41.634;-0.946;2023-05-27T11:21:25;8.32;;;3.80;;
56171;SDS011;42052;41.634;-0.946;2023-05-27T11:24:15;6.10;;;3.80;;
56171;SDS011;42052;41.634;-0.946;2023-05-27T11:27:11;7.65;;;3.80;;
56171;SDS011;42052;41.634;-0.946;2023-05-27T11:29:58;7.22;;;3.70;;
56171;SDS011;42052;41.634;-0.946;2023-05-27T11:32:45;6.78;;;3.80;;
56171;SDS011;42052;41.634;-0.946;2023-05-27T11:35:31;8.93;;;3.90;;
56171;SDS011;42052;41.634;-0.946;2023-05-27T11:38:19;7.00;;;3.53;;
56171;SDS011;42052;41.634;-0.946;2023-05-27T11:41:08;8.65;;;3.75;;
56171;SDS011;42052;41.634;-0.946;2023-05-27T11:46:46;7.03;;;3.45;;
56171;SDS011;42052;41.634;-0.946;2023-05-27T11:49:33;7.00;;;3.60;;
56171;SDS011;42052;41.634;-0.946;2023-05-27T11:52:23;6.10;;;3.70;;
56171;SDS011;42052;41.634;-0.946;2023-05-27T11:55:14;6.13;;;3.78;;
56171;SDS011;42052;41.634;-0.946;2023-05-27T11:58:00;5.78;;;3.70;;
56171;SDS011;42052;41.634;-0.946;2023-05-27T12:00:46;5.20;;;3.55;;
56171;SDS011;42052;41.634;-0.946;2023-05-27T12:03:33;6.10;;;3.72;;
56171;SDS011;42052;41.634;-0.946;2023-05-27T12:06:19;6.70;;;3.50;;
56171;SDS011;42052;41.634;-0.946;2023-05-27T12:09:05;7.22;;;3.72;;
56171;SDS011;42052;41.634;-0.946;2023-05-27T12:11:52;6.95;;;3.35;;
56171;SDS011;42052;41.634;-0.946;2023-05-27T12:14:39;6.55;;;3.30;;
56171;SDS011;42052;41.634;-0.946;2023-05-27T12:17:25;4.60;;;3.30;;
56171;SDS011;42052;41.634;-0.946;2023-05-27T12:20:11;5.72;;;3.28;;
56171;SDS011;42052;41.634;-0.946;2023-05-27T12:22:57;5.38;;;3.30;;
56171;SDS011;42052;41.634;-0.946;2023-05-27T12:25:43;28.90;;;4.40;;
56171;SDS011;42052;41.634;-0.946;2023-05-27T12:28:30;7.70;;;3.83;;
56171;SDS011;42052;41.634;-0.946;2023-05-27T12:31:16;5.57;;;3.35;;
56171;SDS011;42052;41.634;-0.946;2023-05-27T12:34:02;7.68;;;3.67;;
56171;SDS011;42052;41.634;-0.946;2023-05-27T12:36:48;9.70;;;3.80;;
56171;SDS011;42052;41.634;-0.946;2023-05-27T12:39:34;5.53;;;3.40;;
56171;SDS011;42052;41.634;-0.946;2023-05-27T12:42:20;5.55;;;3.30;;
56171;SDS011;42052;41.634;-0.946;2023-05-27T12:45:08;6.20;;;3.33;;
56171;SDS011;42052;41.634;-0.946;2023-05-27T12:47:54;5.55;;;3.25;;
56171;SDS011;42052;41.634;-0.946;2023-05-27T12:50:40;6.70;;;3.60;;
56171;SDS011;42052;41.634;-0.946;2023-05-27T12:53:26;4.82;;;3.35;;
56171;SDS011;42052;41.634;-0.946;2023-05-27T12:56:12;5.57;;;3.50;;
56171;SDS011;42052;41.634;-0.946;2023-05-27T12:58:58;6.00;;;3.28;;
56171;SDS011;42052;41.634;-0.946;2023-05-27T13:01:45;6.15;;;3.30;;
56171;SDS011;42052;41.634;-0.946;2023-05-27T13:04:31;6.18;;;3.30;;
56171;SDS011;42052;41.634;-0.946;2023-05-27T13:07:17;5.72;;;3.15;;
56171;SDS011;42052;41.634;-0.946;2023-05-27T13:10:04;5.95;;;3.40;;
56171;SDS011;42052;41.634;-0.946;2023-05-27T13:12:51;5.40;;;3.28;;
56171;SDS011;42052;41.634;-0.946;2023-05-27T13:15:37;6.47;;;3.38;;
56171;SDS011;42052;41.634;-0.946;2023-05-27T13:18:24;5.25;;;3.33;;
56171;SDS011;42052;41.634;-0.946;2023-05-27T13:21:10;5.47;;;3.28;;
56171;SDS011;42052;41.634;-0.946;2023-05-27T13:23:56;5.28;;;3.30;;
56171;SDS011;42052;41.634;-0.946;2023-05-27T13:26:42;5.70;;;3.33;;
56171;SDS011;42052;41.634;-0.946;2023-05-27T13:29:28;5.55;;;3.35;;
56171;SDS011;42052;41.634;-0.946;2023-05-27T13:32:14;5.47;;;3.75;;
56171;SDS011;42052;41.634;-0.946;2023-05-27T13:35:01;7.80;;;3.40;;
56171;SDS011;42052;41.634;-0.946;2023-05-27T13:37:48;6.97;;;3.40;;
56171;SDS011;42052;41.634;-0.946;2023-05-27T13:40:34;5.32;;;2.95;;
56171;SDS011;42052;41.634;-0.946;2023-05-27T13:43:20;4.97;;;3.17;;
56171;SDS011;42052;41.634;-0.946;2023-05-27T13:46:06;5.57;;;2.97;;
56171;SDS011;42052;41.634;-0.946;2023-05-27T13:48:52;5.45;;;3.28;;
56171;SDS011;42052;41.634;-0.946;2023-05-27T13:51:42;5.65;;;3.45;;
56171;SDS011;42052;41.634;-0.946;2023-05-27T13:54:29;5.15;;;3.20;;
56171;SDS011;42052;41.634;-0.946;2023-05-27T13:57:15;6.32;;;3.08;;
56171;SDS011;42052;41.634;-0.946;2023-05-27T14:00:01;3.85;;;3.08;;
56171;SDS011;42052;41.634;-0.946;2023-05-27T14:02:48;5.43;;;3.05;;
56171;SDS011;42052;41.634;-0.946;2023-05-27T14:05:34;4.18;;;3.03;;
56171;SDS011;42052;41.634;-0.946;2023-05-27T14:08:21;4.57;;;2.90;;
56171;SDS011;42052;41.634;-0.946;2023-05-27T14:11:07;3.85;;;2.85;;
56171;SDS011;42052;41.634;-0.946;2023-05-27T14:13:53;4.57;;;2.90;;
56171;SDS011;42052;41.634;-0.946;2023-05-27T14:16:40;4.85;;;3.10;;
56171;SDS011;42052;41.634;-0.946;2023-05-27T14:19:26;4.35;;;2.83;;
56171;SDS011;42052;41.634;-0.946;2023-05-27T14:22:13;3.78;;;2.92;;
56171;SDS011;42052;41.634;-0.946;2023-05-27T14:24:59;5.85;;;2.80;;
56171;SDS011;42052;41.634;-0.946;2023-05-27T14:27:45;5.05;;;3.33;;
56171;SDS011;42052;41.634;-0.946;2023-05-27T14:30:34;3.90;;;2.70;;
56171;SDS011;42052;41.634;-0.946;2023-05-27T14:33:23;4.97;;;2.53;;
56171;SDS011;42052;41.634;-0.946;2023-05-27T14:36:09;3.58;;;2.75;;
56171;SDS011;42052;41.634;-0.946;2023-05-27T14:38:55;4.13;;;2.90;;
56171;SDS011;42052;41.634;-0.946;2023-05-27T14:41:42;4.72;;;2.90;;
56171;SDS011;42052;41.634;-0.946;2023-05-27T14:44:28;4.22;;;2.80;;
56171;SDS011;42052;41.634;-0.946;2023-05-27T14:47:15;3.70;;;2.75;;
56171;SDS011;42052;41.634;-0.946;2023-05-27T14:50:01;3.47;;;2.72;;
56171;SDS011;42052;41.634;-0.946;2023-05-27T14:52:51;4.80;;;2.90;;
56171;SDS011;42052;41.634;-0.946;2023-05-27T14:55:38;4.55;;;2.78;;
56171;SDS011;42052;41.634;-0.946;2023-05-27T14:58:24;4.43;;;2.70;;
56171;SDS011;42052;41.634;-0.946;2023-05-27T15:01:10;3.22;;;2.65;;
56171;SDS011;42052;41.634;-0.946;2023-05-27T15:03:56;3.47;;;2.42;;
56171;SDS011;42052;41.634;-0.946;2023-05-27T15:06:42;6.85;;;3.08;;
56171;SDS011;42052;41.634;-0.946;2023-05-27T15:09:28;3.33;;;2.60;;
56171;SDS011;42052;41.634;-0.946;2023-05-27T15:12:14;3.70;;;2.63;;
56171;SDS011;42052;41.634;-0.946;2023-05-27T15:15:01;3.47;;;2.50;;
56171;SDS011;42052;41.634;-0.946;2023-05-27T15:17:47;3.55;;;2.30;;
56171;SDS011;42052;41.634;-0.946;2023-05-27T15:20:33;5.78;;;3.03;;
56171;SDS011;42052;41.634;-0.946;2023-05-27T15:23:19;3.42;;;2.60;;
56171;SDS011;42052;41.634;-0.946;2023-05-27T15:26:05;3.90;;;2.60;;
56171;SDS011;42052;41.634;-0.946;2023-05-27T15:28:51;4.55;;;2.60;;
56171;SDS011;42052;41.634;-0.946;2023-05-27T15:31:38;5.07;;;2.55;;
56171;SDS011;42052;41.634;-0.946;2023-05-27T15:34:24;3.80;;;2.30;;
56171;SDS011;42052;41.634;-0.946;2023-05-27T15:37:10;4.47;;;2.60;;
56171;SDS011;42052;41.634;-0.946;2023-05-27T15:39:56;3.63;;;2.50;;
56171;SDS011;42052;41.634;-0.946;2023-05-27T15:42:42;3.08;;;2.42;;
56171;SDS011;42052;41.634;-0.946;2023-05-27T15:45:29;5.95;;;2.80;;
56171;SDS011;42052;41.634;-0.946;2023-05-27T15:48:15;3.35;;;2.30;;
56171;SDS011;42052;41.634;-0.946;2023-05-27T15:51:01;3.78;;;2.60;;
56171;SDS011;42052;41.634;-0.946;2023-05-27T15:53:48;3.75;;;2.60;;
56171;SDS011;42052;41.634;-0.946;2023-05-27T15:56:34;3.83;;;2.53;;
56171;SDS011;42052;41.634;-0.946;2023-05-27T15:59:21;4.45;;;2.50;;
56171;SDS011;42052;41.634;-0.946;2023-05-27T16:02:09;4.32;;;2.55;;
56171;SDS011;42052;41.634;-0.946;2023-05-27T16:04:55;3.97;;;2.33;;
56171;SDS011;42052;41.634;-0.946;2023-05-27T16:07:41;3.67;;;2.40;;
56171;SDS011;42052;41.634;-0.946;2023-05-27T16:10:29;6.75;;;2.33;;
56171;SDS011;42052;41.634;-0.946;2023-05-27T16:13:15;3.28;;;2.30;;
56171;SDS011;42052;41.634;-0.946;2023-05-27T16:16:01;3.88;;;2.20;;
56171;SDS011;42052;41.634;-0.946;2023-05-27T16:18:47;4.40;;;2.30;;
56171;SDS011;42052;41.634;-0.946;2023-05-27T16:21:33;5.45;;;2.15;;
56171;SDS011;42052;41.634;-0.946;2023-05-27T16:24:19;4.50;;;2.20;;
56171;SDS011;42052;41.634;-0.946;2023-05-27T16:27:05;2.70;;;2.08;;
56171;SDS011;42052;41.634;-0.946;2023-05-27T16:29:52;3.10;;;2.03;;
56171;SDS011;42052;41.634;-0.946;2023-05-27T16:32:38;3.92;;;2.30;;
56171;SDS011;42052;41.634;-0.946;2023-05-27T16:35:24;5.22;;;2.47;;
56171;SDS011;42052;41.634;-0.946;2023-05-27T16:38:10;3.47;;;2.22;;